createdAt,value
2022-08-07T00:00:24.360Z,1027.12
2022-08-07T00:02:50.381Z,1027.13
2022-08-07T00:04:00.773Z,1027.12
2022-08-07T00:05:54.229Z,1027.10
2022-08-07T00:07:09.540Z,1027.05
2022-08-07T00:08:27.256Z,1027.10
2022-08-07T00:10:57.572Z,1027.15
2022-08-07T00:12:24.984Z,1027.12
2022-08-07T00:14:10.625Z,1027.08
2022-08-07T00:16:02.926Z,1027.14
2022-08-07T00:17:19.680Z,1027.05
2022-08-07T00:18:34.593Z,1027.07
2022-08-07T00:21:07.854Z,1027.07
2022-08-07T00:23:07.927Z,1027.06
2022-08-07T00:24:14.550Z,1027.02
2022-08-07T00:27:07.179Z,1026.98
2022-08-07T00:28:56.422Z,1026.94
2022-08-07T00:30:02.082Z,1026.95
2022-08-07T00:32:11.417Z,1026.91
2022-08-07T00:33:26.882Z,1026.92
2022-08-07T00:34:38.116Z,1026.90
2022-08-07T00:36:17.554Z,1026.95
2022-08-07T00:37:29.435Z,1026.91
2022-08-07T00:38:51.981Z,1026.93
2022-08-07T00:40:51.742Z,1026.87
2022-08-07T00:42:14.104Z,1026.90
2022-08-07T00:44:15.098Z,1026.87
2022-08-07T00:45:58.191Z,1026.88
2022-08-07T00:47:06.393Z,1026.91
2022-08-07T00:50:46.641Z,1026.85
2022-08-07T00:52:58.850Z,1026.80
2022-08-07T00:54:09.554Z,1026.80
2022-08-07T00:56:00.355Z,1026.81
2022-08-07T00:58:06.641Z,1026.83
2022-08-07T00:59:10.372Z,1026.77
2022-08-07T01:00:25.622Z,1026.77
2022-08-07T01:02:03.546Z,1026.75
2022-08-07T01:04:05.280Z,1026.71
2022-08-07T01:06:27.542Z,1026.74
2022-08-07T01:07:35.325Z,1026.75
2022-08-07T01:08:53.614Z,1026.75
2022-08-07T01:12:53.423Z,1026.77
2022-08-07T01:14:08.004Z,1026.80
2022-08-07T01:16:06.992Z,1026.78
2022-08-07T01:18:07.056Z,1026.73
2022-08-07T01:19:32.300Z,1026.76
2022-08-07T01:21:05.469Z,1026.77
2022-08-07T01:23:43.780Z,1026.74
2022-08-07T01:24:53.121Z,1026.76
2022-08-07T01:26:57.156Z,1026.73
2022-08-07T01:28:57.531Z,1026.74
2022-08-07T01:30:02.361Z,1026.72
2022-08-07T01:31:23.551Z,1026.72
2022-08-07T01:33:14.779Z,1026.73
2022-08-07T01:34:53.050Z,1026.69
2022-08-07T01:36:12.193Z,1026.68
2022-08-07T01:38:37.088Z,1026.70
2022-08-07T01:39:58.502Z,1026.67
2022-08-07T01:41:12.449Z,1026.67
2022-08-07T01:43:57.420Z,1026.65
2022-08-07T01:45:03.840Z,1026.61
2022-08-07T01:46:32.977Z,1026.65
2022-08-07T01:49:37.557Z,1026.60
2022-08-07T01:50:49.012Z,1026.59
2022-08-07T01:53:08.535Z,1026.62
2022-08-07T01:56:08.562Z,1026.61
2022-08-07T01:57:30.499Z,1026.62
2022-08-07T01:59:37.303Z,1026.59
2022-08-07T02:00:34.625Z,1026.64
2022-08-07T02:03:56.173Z,1026.57
2022-08-07T02:05:15.977Z,1026.55
2022-08-07T02:08:03.154Z,1026.46
2022-08-07T02:09:52.846Z,1026.53
2022-08-07T02:11:10.468Z,1026.53
2022-08-07T02:14:09.739Z,1026.52
2022-08-07T02:15:39.809Z,1026.54
2022-08-07T02:16:48.040Z,1026.54
2022-08-07T02:18:46.997Z,1026.52
2022-08-07T02:21:01.352Z,1026.53
2022-08-07T02:22:46.895Z,1026.53
2022-08-07T02:24:35.895Z,1026.52
2022-08-07T02:26:40.181Z,1026.49
2022-08-07T02:27:52.158Z,1026.50
2022-08-07T02:29:36.791Z,1026.53
2022-08-07T02:30:58.780Z,1026.52
2022-08-07T02:32:38.636Z,1026.51
2022-08-07T02:35:14.831Z,1026.47
2022-08-07T02:37:34.091Z,1026.44
2022-08-07T02:38:51.027Z,1026.43
2022-08-07T02:42:10.380Z,1026.39
2022-08-07T02:43:19.407Z,1026.42
2022-08-07T02:44:34.357Z,1026.44
2022-08-07T02:47:06.637Z,1026.47
2022-08-07T02:48:36.871Z,1026.47
2022-08-07T02:50:15.190Z,1026.45
2022-08-07T02:52:47.846Z,1026.49
2022-08-07T02:54:05.501Z,1026.44
2022-08-07T02:56:02.137Z,1026.39
2022-08-07T02:57:58.209Z,1026.41
2022-08-07T02:59:07.757Z,1026.39
2022-08-07T03:00:23.964Z,1026.43
2022-08-07T03:01:57.766Z,1026.40
2022-08-07T03:03:13.453Z,1026.39
2022-08-07T03:05:29.181Z,1026.39
2022-08-07T03:06:48.330Z,1026.41
2022-08-07T03:08:26.996Z,1026.41
2022-08-07T03:10:41.032Z,1026.39
2022-08-07T03:12:21.765Z,1026.41
2022-08-07T03:13:39.284Z,1026.39
2022-08-07T03:16:03.724Z,1026.34
2022-08-07T03:17:15.807Z,1026.33
2022-08-07T03:18:49.763Z,1026.35
2022-08-07T03:20:47.493Z,1026.37
2022-08-07T03:22:01.711Z,1026.37
2022-08-07T03:24:27.278Z,1026.41
2022-08-07T03:26:32.382Z,1026.43
2022-08-07T03:28:44.535Z,1026.44
2022-08-07T03:29:55.238Z,1026.48
2022-08-07T03:31:58.830Z,1026.51
2022-08-07T03:33:15.582Z,1026.50
2022-08-07T03:34:33.146Z,1026.47
2022-08-07T03:36:49.587Z,1026.49
2022-08-07T03:38:10.578Z,1026.42
2022-08-07T03:40:15.787Z,1026.46
2022-08-07T03:42:33.333Z,1026.45
2022-08-07T03:43:57.163Z,1026.48
2022-08-07T03:45:39.574Z,1026.48
2022-08-07T03:47:29.584Z,1026.50
2022-08-07T03:49:14.713Z,1026.47
2022-08-07T03:50:29.045Z,1026.47
2022-08-07T03:52:39.143Z,1026.49
2022-08-07T03:55:06.189Z,1026.49
2022-08-07T03:57:09.489Z,1026.42
2022-08-07T04:00:35.595Z,1026.38
2022-08-07T04:01:51.259Z,1026.43
2022-08-07T04:03:04.407Z,1026.42
2022-08-07T04:06:04.233Z,1026.45
2022-08-07T04:07:54.431Z,1026.44
2022-08-07T04:08:58.496Z,1026.43
2022-08-07T04:12:29.213Z,1026.41
2022-08-07T04:14:47.777Z,1026.42
2022-08-07T04:16:00.396Z,1026.47
2022-08-07T04:20:04.124Z,1026.47
2022-08-07T04:21:13.104Z,1026.46
2022-08-07T04:22:35.757Z,1026.45
2022-08-07T04:25:29.582Z,1026.49
2022-08-07T04:26:49.255Z,1026.55
2022-08-07T04:28:13.739Z,1026.54
2022-08-07T04:30:55.205Z,1026.53
2022-08-07T04:32:58.132Z,1026.57
2022-08-07T04:34:27.423Z,1026.58
2022-08-07T04:36:18.609Z,1026.57
2022-08-07T04:38:07.515Z,1026.57
2022-08-07T04:39:17.594Z,1026.55
2022-08-07T04:41:08.662Z,1026.54
2022-08-07T04:42:41.250Z,1026.60
2022-08-07T04:44:29.994Z,1026.63
2022-08-07T04:48:10.714Z,1026.69
2022-08-07T04:49:38.423Z,1026.74
2022-08-07T04:51:09.429Z,1026.72
2022-08-07T04:53:04.426Z,1026.76
2022-08-07T04:55:15.550Z,1026.77
2022-08-07T05:00:37.469Z,1026.78
2022-08-07T05:01:44.367Z,1026.80
2022-08-07T05:02:55.595Z,1026.76
2022-08-07T05:06:28.311Z,1026.77
2022-08-07T05:08:06.793Z,1026.74
2022-08-07T05:09:58.090Z,1026.76
2022-08-07T05:12:15.564Z,1026.76
2022-08-07T05:15:10.867Z,1026.72
2022-08-07T05:16:21.512Z,1026.71
2022-08-07T05:18:56.213Z,1026.65
2022-08-07T05:19:59.096Z,1026.65
2022-08-07T05:21:10.147Z,1026.63
2022-08-07T05:23:35.948Z,1026.68
2022-08-07T05:24:56.003Z,1026.71
2022-08-07T05:27:05.411Z,1026.76
2022-08-07T05:30:04.474Z,1026.76
2022-08-07T05:31:35.102Z,1026.77
2022-08-07T05:32:53.147Z,1026.78
2022-08-07T05:34:58.495Z,1026.75
2022-08-07T05:36:03.607Z,1026.74
2022-08-07T05:37:46.374Z,1026.77
2022-08-07T05:42:33.835Z,1026.82
2022-08-07T05:44:34.874Z,1026.83
2022-08-07T05:46:37.699Z,1026.81
2022-08-07T05:49:18.306Z,1026.79
2022-08-07T05:50:33.383Z,1026.75
2022-08-07T05:51:52.429Z,1026.76
2022-08-07T05:55:07.046Z,1026.73
2022-08-07T05:56:51.920Z,1026.77
2022-08-07T05:57:56.229Z,1026.78
2022-08-07T06:00:28.917Z,1026.76
2022-08-07T06:01:47.544Z,1026.78
2022-08-07T06:02:53.922Z,1026.75
2022-08-07T06:05:04.585Z,1026.77
2022-08-07T06:06:29.456Z,1026.79
2022-08-07T06:08:42.288Z,1026.80
2022-08-07T06:11:09.603Z,1026.82
2022-08-07T06:12:18.044Z,1026.83
2022-08-07T06:14:34.081Z,1026.82
2022-08-07T06:16:44.090Z,1026.78
2022-08-07T06:18:06.562Z,1026.81
2022-08-07T06:19:52.253Z,1026.78
2022-08-07T06:26:00.487Z,1026.85
2022-08-07T06:27:09.204Z,1026.84
2022-08-07T06:28:54.908Z,1026.79
2022-08-07T06:30:52.987Z,1026.75
2022-08-07T06:32:01.788Z,1026.74
2022-08-07T06:33:04.990Z,1026.77
2022-08-07T06:34:56.719Z,1026.73
2022-08-07T06:36:41.074Z,1026.77
2022-08-07T06:37:58.610Z,1026.77
2022-08-07T06:42:07.024Z,1026.75
2022-08-07T06:43:46.309Z,1026.74
2022-08-07T06:45:11.321Z,1026.74
2022-08-07T06:47:20.950Z,1026.76
2022-08-07T06:48:53.595Z,1026.75
2022-08-07T06:50:13.847Z,1026.70
2022-08-07T06:52:13.229Z,1026.70
2022-08-07T06:56:07.461Z,1026.70
2022-08-07T06:57:14.161Z,1026.66
2022-08-07T07:00:30.451Z,1026.65
2022-08-07T07:01:56.798Z,1026.64
2022-08-07T07:04:43.475Z,1026.68
2022-08-07T07:08:06.724Z,1026.62
2022-08-07T07:09:37.239Z,1026.61
2022-08-07T07:10:47.352Z,1026.60
2022-08-07T07:14:15.507Z,1026.62
2022-08-07T07:15:43.244Z,1026.61
2022-08-07T07:17:04.726Z,1026.54
2022-08-07T07:20:09.569Z,1026.54
2022-08-07T07:21:27.326Z,1026.56
2022-08-07T07:26:51.768Z,1026.57
2022-08-07T07:30:32.717Z,1026.61
2022-08-07T07:31:55.569Z,1026.63
2022-08-07T07:33:01.448Z,1026.66
2022-08-07T07:34:56.449Z,1026.66
2022-08-07T07:36:19.079Z,1026.63
2022-08-07T07:38:08.554Z,1026.63
2022-08-07T07:40:14.913Z,1026.64
2022-08-07T07:41:50.304Z,1026.61
2022-08-07T07:44:26.566Z,1026.63
2022-08-07T07:47:52.140Z,1026.67
2022-08-07T07:50:51.036Z,1026.66
2022-08-07T07:52:11.304Z,1026.68
2022-08-07T07:54:04.774Z,1026.68
2022-08-07T07:55:17.114Z,1026.69
2022-08-07T07:56:45.595Z,1026.64
2022-08-07T07:58:56.179Z,1026.64
2022-08-07T08:00:43.235Z,1026.68
2022-08-07T08:04:12.510Z,1026.62
2022-08-07T08:05:50.532Z,1026.58
2022-08-07T08:08:39.734Z,1026.56
2022-08-07T08:10:37.622Z,1026.55
2022-08-07T08:12:36.753Z,1026.55
2022-08-07T08:14:57.753Z,1026.51
2022-08-07T08:20:37.737Z,1026.37
2022-08-07T08:22:16.321Z,1026.35
2022-08-07T08:25:24.770Z,1026.31
2022-08-07T08:26:57.049Z,1026.36
2022-08-07T08:28:16.797Z,1026.35
2022-08-07T08:30:22.835Z,1026.41
2022-08-07T08:32:48.668Z,1026.42
2022-08-07T08:34:08.897Z,1026.34
2022-08-07T08:36:09.549Z,1026.34
2022-08-07T08:38:13.877Z,1026.28
2022-08-07T08:39:55.151Z,1026.26
2022-08-07T08:42:14.870Z,1026.26
2022-08-07T08:43:42.651Z,1026.25
2022-08-07T08:44:58.234Z,1026.27
2022-08-07T08:46:57.926Z,1026.32
2022-08-07T08:48:16.311Z,1026.28
2022-08-07T08:50:07.835Z,1026.26
2022-08-07T08:53:06.272Z,1026.26
2022-08-07T08:54:17.171Z,1026.24
2022-08-07T08:56:04.335Z,1026.27
2022-08-07T08:57:50.810Z,1026.27
2022-08-07T08:59:18.523Z,1026.29
2022-08-07T09:00:24.666Z,1026.31
2022-08-07T09:02:04.225Z,1026.30
2022-08-07T09:04:02.365Z,1026.27
2022-08-07T09:05:52.148Z,1026.26
2022-08-07T09:06:59.255Z,1026.25
2022-08-07T09:08:17.958Z,1026.21
2022-08-07T09:10:23.699Z,1026.21
2022-08-07T09:12:19.871Z,1026.20
2022-08-07T09:13:49.331Z,1026.21
2022-08-07T09:16:38.492Z,1026.19
2022-08-07T09:18:28.248Z,1026.19
2022-08-07T09:20:09.429Z,1026.12
2022-08-07T09:26:00.337Z,1026.03
2022-08-07T09:27:19.238Z,1026.08
2022-08-07T09:30:25.523Z,1026.02
2022-08-07T09:32:18.672Z,1026.10
2022-08-07T09:34:03.438Z,1026.06
2022-08-07T09:36:07.808Z,1025.99
2022-08-07T09:38:06.091Z,1025.99
2022-08-07T09:39:59.612Z,1025.99
2022-08-07T09:41:03.913Z,1025.98
2022-08-07T09:43:40.129Z,1026.01
2022-08-07T09:50:26.535Z,1025.95
2022-08-07T09:52:44.621Z,1025.97
2022-08-07T09:54:50.149Z,1025.90
2022-08-07T09:56:19.681Z,1025.89
2022-08-07T09:57:46.417Z,1025.87
2022-08-07T10:00:32.039Z,1025.88
2022-08-07T10:02:04.586Z,1025.84
2022-08-07T10:04:32.652Z,1025.85
2022-08-07T10:07:31.418Z,1025.77
2022-08-07T10:08:55.230Z,1025.78
2022-08-07T10:10:28.209Z,1025.78
2022-08-07T10:14:22.984Z,1025.70
2022-08-07T10:15:50.493Z,1025.68
2022-08-07T10:16:59.708Z,1025.65
2022-08-07T10:19:30.021Z,1025.63
2022-08-07T10:20:44.460Z,1025.66
2022-08-07T10:22:39.613Z,1025.59
2022-08-07T10:25:11.433Z,1025.65
2022-08-07T10:26:39.613Z,1025.61
2022-08-07T10:28:02.355Z,1025.57
2022-08-07T10:29:58.633Z,1025.56
2022-08-07T10:31:05.903Z,1025.56
2022-08-07T10:33:00.100Z,1025.58
2022-08-07T10:36:11.405Z,1025.54
2022-08-07T10:38:36.235Z,1025.49
2022-08-07T10:40:18.525Z,1025.51
2022-08-07T10:42:50.049Z,1025.49
2022-08-07T10:43:54.084Z,1025.48
2022-08-07T10:46:09.768Z,1025.47
2022-08-07T10:48:09.889Z,1025.45
2022-08-07T10:49:49.844Z,1025.43
2022-08-07T10:51:03.874Z,1025.49
2022-08-07T10:54:00.108Z,1025.39
2022-08-07T10:55:38.095Z,1025.34
2022-08-07T10:56:43.049Z,1025.31
2022-08-07T10:58:46.369Z,1025.33
2022-08-07T11:01:01.575Z,1025.25
2022-08-07T11:02:49.160Z,1025.26
2022-08-07T11:04:40.536Z,1025.18
2022-08-07T11:06:38.203Z,1025.19
2022-08-07T11:08:17.410Z,1025.13
2022-08-07T11:10:22.176Z,1025.07
2022-08-07T11:12:14.863Z,1025.03
2022-08-07T11:15:14.805Z,1025.04
2022-08-07T11:16:42.082Z,1025.01
2022-08-07T11:18:57.343Z,1024.97
2022-08-07T11:20:15.463Z,1024.95
2022-08-07T11:21:25.871Z,1025.01
2022-08-07T11:23:54.128Z,1025.04
2022-08-07T11:25:07.245Z,1024.99
2022-08-07T11:26:18.903Z,1024.92
2022-08-07T11:28:59.192Z,1024.91
2022-08-07T11:31:08.560Z,1024.81
2022-08-07T11:32:31.968Z,1024.79
2022-08-07T11:34:56.865Z,1024.77
2022-08-07T11:36:16.157Z,1024.75
2022-08-07T11:38:12.873Z,1024.72
2022-08-07T11:40:19.207Z,1024.70
2022-08-07T11:42:16.797Z,1024.66
2022-08-07T11:44:18.635Z,1024.69
2022-08-07T11:46:23.305Z,1024.67
2022-08-07T11:47:56.632Z,1024.69
2022-08-07T11:50:57.930Z,1024.60
2022-08-07T11:53:22.584Z,1024.57
2022-08-07T11:55:13.123Z,1024.59
2022-08-07T11:58:04.130Z,1024.52
2022-08-07T12:00:33.971Z,1024.56
2022-08-07T12:02:30.296Z,1024.51
2022-08-07T12:03:58.553Z,1024.48
2022-08-07T12:05:58.340Z,1024.49
2022-08-07T12:08:37.233Z,1024.45
2022-08-07T12:09:46.128Z,1024.47
2022-08-07T12:11:43.407Z,1024.46
2022-08-07T12:13:47.727Z,1024.40
2022-08-07T12:15:02.040Z,1024.41
2022-08-07T12:17:39.926Z,1024.42
2022-08-07T12:19:35.623Z,1024.43
2022-08-07T12:22:56.537Z,1024.43
2022-08-07T12:26:49.081Z,1024.38
2022-08-07T12:28:36.482Z,1024.41
2022-08-07T12:29:51.827Z,1024.39
2022-08-07T12:32:18.885Z,1024.41
2022-08-07T12:34:11.179Z,1024.36
2022-08-07T12:35:19.621Z,1024.38
2022-08-07T12:38:47.488Z,1024.40
2022-08-07T12:40:59.706Z,1024.39
2022-08-07T12:42:22.863Z,1024.36
2022-08-07T12:45:12.276Z,1024.29
2022-08-07T12:46:38.247Z,1024.33
2022-08-07T12:47:54.991Z,1024.28
2022-08-07T12:51:50.999Z,1024.24
2022-08-07T12:54:02.860Z,1024.25
2022-08-07T12:56:15.725Z,1024.20
2022-08-07T12:58:14.420Z,1024.19
2022-08-07T12:59:59.607Z,1024.19
2022-08-07T13:00:49.998Z,1024.19
2022-08-07T13:01:55.844Z,1024.19
2022-08-07T13:03:06.937Z,1024.17
2022-08-07T13:07:17.974Z,1024.21
2022-08-07T13:10:51.499Z,1024.16
2022-08-07T13:12:19.049Z,1024.13
2022-08-07T13:14:03.185Z,1024.06
2022-08-07T13:15:09.035Z,1024.09
2022-08-07T13:16:27.291Z,1024.04
2022-08-07T13:18:39.728Z,1024.02
2022-08-07T13:20:05.476Z,1024.10
2022-08-07T13:21:37.706Z,1024.10
2022-08-07T13:25:06.786Z,1024.04
2022-08-07T13:26:32.186Z,1023.99
2022-08-07T13:28:30.796Z,1023.99
2022-08-07T13:30:48.863Z,1023.99
2022-08-07T13:32:37.808Z,1023.94
2022-08-07T13:34:53.989Z,1023.92
2022-08-07T13:37:36.832Z,1023.90
2022-08-07T13:39:00.362Z,1023.91
2022-08-07T13:41:33.909Z,1023.81
2022-08-07T13:43:27.768Z,1023.81
2022-08-07T13:45:20.710Z,1023.84
2022-08-07T13:48:27.779Z,1023.78
2022-08-07T13:52:48.627Z,1023.80
2022-08-07T13:54:22.424Z,1023.86
2022-08-07T13:55:46.942Z,1023.84
2022-08-07T13:58:27.540Z,1023.80
2022-08-07T13:59:45.585Z,1023.69
2022-08-07T14:00:39.543Z,1023.79
2022-08-07T14:02:18.572Z,1023.80
2022-08-07T14:04:21.295Z,1023.80
2022-08-07T14:06:26.124Z,1023.75
2022-08-07T14:07:36.375Z,1023.80
2022-08-07T14:09:42.151Z,1023.79
2022-08-07T14:13:16.369Z,1023.84
2022-08-07T14:14:38.632Z,1023.81
2022-08-07T14:15:50.587Z,1023.82
2022-08-07T14:18:41.663Z,1023.84
2022-08-07T14:21:00.522Z,1023.81
2022-08-07T14:24:00.317Z,1023.78
2022-08-07T14:25:53.807Z,1023.81
2022-08-07T14:28:33.108Z,1023.77
2022-08-07T14:31:21.915Z,1023.80
2022-08-07T14:33:45.368Z,1023.73
2022-08-07T14:34:58.288Z,1023.73
2022-08-07T14:36:29.921Z,1023.72
2022-08-07T15:00:36.318Z,1023.70
2022-08-07T15:02:04.275Z,1023.75
2022-08-07T15:53:08.143Z,1023.56
2022-08-07T15:55:17.235Z,1023.57
2022-08-07T15:56:59.577Z,1023.52
2022-08-07T15:58:49.858Z,1023.53
2022-08-07T16:00:45.593Z,1023.49
2022-08-07T16:02:08.527Z,1023.52
2022-08-07T16:03:54.403Z,1023.55
2022-08-07T16:05:54.419Z,1023.47
2022-08-07T16:06:59.882Z,1023.44
2022-08-07T16:09:53.649Z,1023.43
2022-08-07T16:11:51.342Z,1023.41
2022-08-07T16:13:59.993Z,1023.40
2022-08-07T16:15:55.386Z,1023.46
2022-08-07T16:20:05.573Z,1023.43
2022-08-07T16:23:05.496Z,1023.40
2022-08-07T16:25:07.586Z,1023.34
2022-08-07T16:28:02.626Z,1023.37
2022-08-07T16:32:03.900Z,1023.36
2022-08-07T16:34:55.406Z,1023.37
2022-08-07T16:39:16.702Z,1023.38
2022-08-07T16:41:10.246Z,1023.39
2022-08-07T16:42:33.631Z,1023.33
2022-08-07T16:46:34.748Z,1023.31
2022-08-07T16:51:13.620Z,1023.37
2022-08-07T16:55:08.272Z,1023.37
2022-08-07T16:57:15.560Z,1023.34
2022-08-07T16:59:44.139Z,1023.35
2022-08-07T17:00:36.702Z,1023.35
2022-08-07T17:01:47.114Z,1023.35
2022-08-07T17:03:57.786Z,1023.39
2022-08-07T17:07:03.368Z,1023.35
2022-08-07T17:10:32.361Z,1023.36
2022-08-07T17:12:44.312Z,1023.36
2022-08-07T17:15:21.430Z,1023.43
2022-08-07T17:16:55.584Z,1023.42
2022-08-07T17:18:13.967Z,1023.40
2022-08-07T17:20:29.977Z,1023.38
2022-08-07T17:22:03.632Z,1023.39
2022-08-07T17:23:32.279Z,1023.36
2022-08-07T17:25:20.826Z,1023.34
2022-08-07T17:27:19.797Z,1023.30
2022-08-07T17:28:49.839Z,1023.36
2022-08-07T17:32:35.956Z,1023.37
2022-08-07T17:36:06.039Z,1023.38
2022-08-07T17:38:40.544Z,1023.38
2022-08-07T17:42:08.821Z,1023.38
2022-08-07T17:44:33.190Z,1023.36
2022-08-07T17:45:47.831Z,1023.36
2022-08-07T17:48:00.089Z,1023.35
2022-08-07T17:49:48.680Z,1023.35
2022-08-07T17:51:07.377Z,1023.35
2022-08-07T17:54:29.538Z,1023.32
2022-08-07T17:56:31.620Z,1023.38
2022-08-07T17:58:13.084Z,1023.36
2022-08-07T18:00:48.839Z,1023.37
2022-08-07T18:02:08.562Z,1023.36
2022-08-07T18:04:03.689Z,1023.35
2022-08-07T18:06:43.398Z,1023.36
2022-08-07T18:08:54.250Z,1023.37
2022-08-07T18:12:39.868Z,1023.37
2022-08-07T18:14:37.493Z,1023.37
2022-08-07T18:15:51.840Z,1023.44
2022-08-07T18:17:10.951Z,1023.41
2022-08-07T18:24:02.700Z,1023.49
2022-08-07T18:25:52.031Z,1023.47
2022-08-07T18:27:23.124Z,1023.53
2022-08-07T18:30:54.706Z,1023.54
2022-08-07T18:32:08.638Z,1023.54
2022-08-07T18:33:23.467Z,1023.58
2022-08-07T18:36:06.055Z,1023.58
2022-08-07T18:40:38.741Z,1023.62
2022-08-07T18:42:11.934Z,1023.64
2022-08-07T18:44:03.622Z,1023.67
2022-08-07T18:46:33.425Z,1023.69
2022-08-07T18:48:07.329Z,1023.78
2022-08-07T18:53:59.716Z,1023.73
2022-08-07T18:56:03.391Z,1023.78
2022-08-07T18:57:43.119Z,1023.76
2022-08-07T19:00:55.152Z,1023.79
2022-08-07T19:03:36.097Z,1023.83
2022-08-07T19:05:23.453Z,1023.83
2022-08-07T19:08:11.194Z,1023.88
2022-08-07T19:10:06.273Z,1023.86
2022-08-07T19:12:10.937Z,1023.90
2022-08-07T19:14:19.957Z,1023.93
2022-08-07T19:17:55.634Z,1023.94
2022-08-07T19:19:43.296Z,1023.95
2022-08-07T19:22:38.122Z,1024.00
2022-08-07T19:24:12.424Z,1024.04
2022-08-07T19:30:57.270Z,1024.08
2022-08-07T19:34:47.688Z,1024.15
2022-08-07T19:35:52.440Z,1024.15
2022-08-07T19:37:16.973Z,1024.18
2022-08-07T19:40:14.121Z,1024.19
2022-08-07T19:42:30.281Z,1024.21
2022-08-07T19:44:21.066Z,1024.19
2022-08-07T19:47:10.783Z,1024.28
2022-08-07T19:48:53.825Z,1024.32
2022-08-07T19:50:53.266Z,1024.34
2022-08-07T19:55:02.845Z,1024.37
2022-08-07T19:57:51.401Z,1024.36
2022-08-07T19:59:21.842Z,1024.37
2022-08-07T20:00:40.202Z,1024.39
2022-08-07T20:02:15.322Z,1024.40
2022-08-07T20:03:47.798Z,1024.39
2022-08-07T20:06:30.751Z,1024.38
2022-08-07T20:08:03.944Z,1024.40
2022-08-07T20:10:54.611Z,1024.41
2022-08-07T20:14:31.605Z,1024.39
2022-08-07T20:16:03.538Z,1024.41
2022-08-07T20:17:38.523Z,1024.42
2022-08-07T20:20:04.287Z,1024.44
2022-08-07T20:21:29.105Z,1024.44
2022-08-07T20:22:48.112Z,1024.48
2022-08-07T20:25:06.280Z,1024.44
2022-08-07T20:26:55.855Z,1024.48
2022-08-07T20:28:43.369Z,1024.49
2022-08-07T20:30:58.341Z,1024.51
2022-08-07T20:32:36.187Z,1024.52
2022-08-07T20:33:49.568Z,1024.52
2022-08-07T20:36:09.361Z,1024.51
2022-08-07T20:37:15.547Z,1024.56
2022-08-07T20:39:31.185Z,1024.55
2022-08-07T20:42:22.104Z,1024.53
2022-08-07T20:43:34.747Z,1024.64
2022-08-07T20:44:55.228Z,1024.62
2022-08-07T20:50:02.283Z,1024.61
2022-08-07T20:51:10.001Z,1024.58
2022-08-07T20:52:57.733Z,1024.54
2022-08-07T20:55:23.597Z,1024.61
2022-08-07T20:56:39.102Z,1024.57
2022-08-07T20:58:08.990Z,1024.67
2022-08-07T21:00:28.319Z,1024.65
2022-08-07T21:02:01.207Z,1024.66
2022-08-07T21:03:31.729Z,1024.64
2022-08-07T21:06:22.282Z,1024.65
2022-08-07T21:07:41.381Z,1024.66
2022-08-07T21:08:52.408Z,1024.65
2022-08-07T21:11:01.480Z,1024.68
2022-08-07T21:12:43.195Z,1024.65
2022-08-07T21:14:40.626Z,1024.67
2022-08-07T21:18:33.853Z,1024.65
2022-08-07T21:20:26.478Z,1024.72
2022-08-07T21:22:03.306Z,1024.74
2022-08-07T21:24:04.204Z,1024.80
2022-08-07T21:25:18.886Z,1024.76
2022-08-07T21:26:48.576Z,1024.74
2022-08-07T21:29:03.826Z,1024.70
2022-08-07T21:30:23.745Z,1024.68
2022-08-07T21:32:55.007Z,1024.68
2022-08-07T21:34:54.396Z,1024.73
2022-08-07T21:36:38.396Z,1024.66
2022-08-07T21:38:13.288Z,1024.68
2022-08-07T21:40:50.625Z,1024.71
2022-08-07T21:42:48.439Z,1024.65
2022-08-07T21:44:09.331Z,1024.69
2022-08-07T21:47:30.092Z,1024.72
2022-08-07T21:49:03.085Z,1024.72
2022-08-07T21:50:47.324Z,1024.75
2022-08-07T21:53:00.057Z,1024.70
2022-08-07T21:54:15.603Z,1024.76
2022-08-07T21:55:35.409Z,1024.75
2022-08-07T21:58:05.184Z,1024.75
2022-08-07T22:00:02.594Z,1024.73
2022-08-07T22:00:36.756Z,1024.78
2022-08-07T22:02:26.453Z,1024.75
2022-08-07T22:03:43.367Z,1024.80
2022-08-07T22:05:57.580Z,1024.82
2022-08-07T22:08:03.852Z,1024.84
2022-08-07T22:09:12.993Z,1024.83
2022-08-07T22:11:01.597Z,1024.84
2022-08-07T22:12:24.594Z,1024.84
2022-08-07T22:13:58.845Z,1024.88
2022-08-07T22:18:09.753Z,1024.89
2022-08-07T22:19:16.418Z,1024.83
2022-08-07T22:20:35.082Z,1024.86
2022-08-07T22:22:57.197Z,1024.89
2022-08-07T22:24:00.321Z,1024.90
2022-08-07T22:25:04.837Z,1024.87
2022-08-07T22:26:57.884Z,1024.90
2022-08-07T22:28:41.540Z,1024.88
2022-08-07T22:30:01.428Z,1024.91
2022-08-07T22:32:25.778Z,1024.89
2022-08-07T22:34:07.470Z,1024.92
2022-08-07T22:35:51.785Z,1024.96
2022-08-07T22:38:24.097Z,1024.98
2022-08-07T22:39:53.602Z,1025.02
2022-08-07T22:41:09.051Z,1025.01
2022-08-07T22:43:39.775Z,1025.01
2022-08-07T22:45:11.006Z,1025.03
2022-08-07T22:49:09.493Z,1025.01
2022-08-07T22:50:56.223Z,1025.07
2022-08-07T22:52:06.265Z,1025.06
2022-08-07T22:54:22.365Z,1025.06
2022-08-07T22:56:22.729Z,1025.09
2022-08-07T22:57:37.524Z,1025.11
2022-08-07T22:58:53.239Z,1025.08
2022-08-07T23:00:28.806Z,1025.10
2022-08-07T23:01:59.264Z,1025.12
2022-08-07T23:03:09.206Z,1025.11
2022-08-07T23:06:23.903Z,1025.14
2022-08-07T23:07:54.232Z,1025.18
2022-08-07T23:10:48.207Z,1025.14
2022-08-07T23:12:48.090Z,1025.16
2022-08-07T23:14:22.766Z,1025.17
2022-08-07T23:17:00.800Z,1025.19
2022-08-07T23:18:53.482Z,1025.22
2022-08-07T23:20:14.260Z,1025.23
2022-08-07T23:21:48.415Z,1025.24
2022-08-07T23:24:22.879Z,1025.30
2022-08-07T23:25:35.013Z,1025.34
2022-08-07T23:26:50.254Z,1025.31
2022-08-07T23:31:06.761Z,1025.31
2022-08-07T23:35:37.313Z,1025.27
2022-08-07T23:36:43.117Z,1025.23
2022-08-07T23:39:27.924Z,1025.26
2022-08-07T23:40:55.137Z,1025.26
2022-08-07T23:42:30.474Z,1025.25
2022-08-07T23:44:35.519Z,1025.25
2022-08-07T23:46:19.908Z,1025.24
2022-08-07T23:47:48.307Z,1025.24
2022-08-07T23:49:42.275Z,1025.26
2022-08-07T23:52:57.181Z,1025.26
2022-08-07T23:54:58.783Z,1025.24
2022-08-07T23:57:34.911Z,1025.23
2022-08-07T23:58:42.761Z,1025.23
